createdAt,value
2018-11-04T00:01:35.024Z,4.33
2018-11-04T00:04:04.268Z,4.33
2018-11-04T00:06:33.453Z,3.90
2018-11-04T00:09:02.529Z,3.40
2018-11-04T00:11:31.509Z,2.80
2018-11-04T00:14:00.307Z,2.67
2018-11-04T00:16:29.263Z,2.37
2018-11-04T00:18:58.082Z,2.07
2018-11-04T00:21:26.848Z,2.47
2018-11-04T00:23:55.818Z,2.20
2018-11-04T00:26:24.836Z,2.37
2018-11-04T00:28:53.719Z,2.30
2018-11-04T00:31:22.598Z,1.63
2018-11-04T00:33:51.431Z,1.93
2018-11-04T00:36:20.344Z,1.93
2018-11-04T00:38:52.093Z,2.07
2018-11-04T00:41:20.934Z,1.90
2018-11-04T00:43:50.013Z,1.43
2018-11-04T00:46:18.901Z,1.57
2018-11-04T00:48:48.036Z,1.70
2018-11-04T00:51:17.024Z,1.80
2018-11-04T00:53:46.207Z,2.00
2018-11-04T00:56:15.082Z,1.70
2018-11-04T00:58:44.010Z,1.83
2018-11-04T01:01:13.023Z,1.50
2018-11-04T01:03:41.968Z,1.80
2018-11-04T01:06:10.858Z,1.80
2018-11-04T01:08:40.057Z,1.70
2018-11-04T01:11:09.210Z,1.77
2018-11-04T01:13:38.281Z,1.50
2018-11-04T01:16:07.398Z,1.40
2018-11-04T01:18:36.308Z,1.30
2018-11-04T01:21:05.339Z,1.63
2018-11-04T01:23:34.435Z,1.60
2018-11-04T01:26:03.577Z,1.73
2018-11-04T01:28:32.425Z,1.60
2018-11-04T01:31:01.356Z,1.43
2018-11-04T01:33:30.134Z,1.50
2018-11-04T01:35:59.075Z,1.60
2018-11-04T01:38:28.393Z,2.07
2018-11-04T01:40:57.368Z,1.83
2018-11-04T01:43:26.181Z,1.47
2018-11-04T01:45:55.030Z,1.87
2018-11-04T01:48:23.927Z,1.80
2018-11-04T01:50:52.598Z,1.70
2018-11-04T01:53:21.571Z,1.67
2018-11-04T01:55:50.531Z,1.53
2018-11-04T01:58:19.358Z,1.83
2018-11-04T02:00:48.374Z,2.00
2018-11-04T02:03:17.681Z,1.80
2018-11-04T02:05:46.499Z,1.30
2018-11-04T02:08:15.516Z,1.43
2018-11-04T02:10:44.545Z,1.90
2018-11-04T02:13:13.511Z,2.30
2018-11-04T02:15:42.288Z,1.80
2018-11-04T02:18:11.601Z,1.77
2018-11-04T02:20:40.996Z,1.60
2018-11-04T02:23:10.281Z,1.33
2018-11-04T02:25:39.540Z,1.53
2018-11-04T02:28:08.783Z,1.43
2018-11-04T02:30:37.798Z,1.90
2018-11-04T02:33:06.960Z,1.63
2018-11-04T02:35:36.105Z,1.67
2018-11-04T02:38:05.563Z,1.80
2018-11-04T02:40:34.674Z,1.40
2018-11-04T02:43:03.790Z,1.60
2018-11-04T02:45:32.893Z,1.57
2018-11-04T02:48:01.790Z,1.73
2018-11-04T02:50:30.852Z,1.40
2018-11-04T02:53:00.225Z,1.37
2018-11-04T02:55:29.306Z,1.23
2018-11-04T02:57:58.477Z,1.20
2018-11-04T03:00:27.621Z,1.40
2018-11-04T03:02:56.393Z,1.67
2018-11-04T03:05:25.189Z,1.50
2018-11-04T03:07:54.242Z,2.03
2018-11-04T03:10:23.021Z,1.20
2018-11-04T03:12:52.007Z,1.43
2018-11-04T03:15:21.016Z,1.50
2018-11-04T03:17:50.382Z,1.37
2018-11-04T03:20:19.452Z,1.30
2018-11-04T03:22:48.481Z,1.17
2018-11-04T03:25:17.783Z,1.57
2018-11-04T03:27:46.763Z,1.27
2018-11-04T03:30:15.633Z,1.20
2018-11-04T03:32:44.757Z,1.17
2018-11-04T03:35:13.879Z,1.20
2018-11-04T03:37:42.984Z,1.40
2018-11-04T03:40:12.904Z,1.20
2018-11-04T03:42:42.301Z,1.00
2018-11-04T03:45:11.738Z,1.23
2018-11-04T03:47:41.156Z,1.20
2018-11-04T03:50:11.442Z,1.47
2018-11-04T03:52:40.353Z,1.40
2018-11-04T03:55:09.257Z,1.60
2018-11-04T03:57:38.422Z,1.40
2018-11-04T04:00:10.341Z,1.53
2018-11-04T04:02:39.363Z,1.50
2018-11-04T04:05:09.043Z,1.30
2018-11-04T04:07:38.009Z,1.43
2018-11-04T04:10:08.111Z,1.40
2018-11-04T04:12:37.306Z,1.30
2018-11-04T04:15:07.461Z,1.40
2018-11-04T04:17:36.537Z,1.60
2018-11-04T04:20:05.723Z,1.33
2018-11-04T04:22:34.580Z,1.50
2018-11-04T04:25:03.663Z,1.47
2018-11-04T04:27:32.587Z,1.37
2018-11-04T04:30:01.629Z,1.43
2018-11-04T04:32:30.644Z,1.40
2018-11-04T04:34:59.613Z,1.43
2018-11-04T04:37:28.622Z,1.50
2018-11-04T04:39:57.762Z,1.73
2018-11-04T04:42:26.747Z,1.50
2018-11-04T04:44:55.709Z,1.50
2018-11-04T04:47:24.709Z,1.47
2018-11-04T04:49:53.828Z,1.67
2018-11-04T04:52:22.545Z,1.43
2018-11-04T04:54:51.429Z,1.30
2018-11-04T04:57:20.544Z,1.57
2018-11-04T04:59:49.671Z,1.50
2018-11-04T05:02:18.631Z,1.80
2018-11-04T05:04:47.829Z,1.50
2018-11-04T05:07:17.217Z,1.70
2018-11-04T05:09:46.128Z,1.70
2018-11-04T05:12:15.158Z,1.53
2018-11-04T05:14:44.455Z,1.67
2018-11-04T05:17:13.449Z,1.93
2018-11-04T05:19:42.678Z,1.60
2018-11-04T05:22:11.746Z,1.80
2018-11-04T05:24:40.404Z,1.70
2018-11-04T05:27:09.217Z,1.77
2018-11-04T05:29:38.021Z,1.60
2018-11-04T05:32:06.899Z,1.80
2018-11-04T05:34:36.011Z,1.70
2018-11-04T05:37:04.887Z,1.53
2018-11-04T05:39:33.779Z,1.70
2018-11-04T05:42:02.692Z,1.27
2018-11-04T05:44:31.701Z,1.63
2018-11-04T05:47:00.643Z,1.80
2018-11-04T05:49:29.575Z,1.63
2018-11-04T05:51:58.539Z,1.80
2018-11-04T05:54:27.448Z,1.60
2018-11-04T05:56:56.421Z,1.83
2018-11-04T05:59:25.437Z,1.87
2018-11-04T06:01:54.252Z,1.70
2018-11-04T06:04:23.159Z,1.83
2018-11-04T06:06:51.928Z,1.90
2018-11-04T06:09:20.900Z,1.70
2018-11-04T06:11:49.802Z,2.33
2018-11-04T06:14:18.790Z,1.73
2018-11-04T06:16:47.939Z,1.50
2018-11-04T06:19:16.809Z,1.80
2018-11-04T06:21:45.930Z,1.70
2018-11-04T06:24:14.965Z,1.40
2018-11-04T06:26:43.964Z,1.40
2018-11-04T06:29:12.852Z,2.00
2018-11-04T06:31:41.828Z,1.53
2018-11-04T06:34:10.796Z,1.63
2018-11-04T06:36:39.571Z,1.57
2018-11-04T06:39:09.664Z,1.90
2018-11-04T06:41:39.065Z,1.57
2018-11-04T06:44:08.929Z,1.80
2018-11-04T06:46:37.901Z,1.40
2018-11-04T06:49:07.002Z,1.70
2018-11-04T06:51:36.179Z,1.30
2018-11-04T06:54:05.253Z,1.70
2018-11-04T06:56:34.199Z,1.60
2018-11-04T06:59:03.521Z,1.60
2018-11-04T07:01:32.628Z,1.40
2018-11-04T07:04:12.733Z,1.63
2018-11-04T07:06:41.961Z,1.20
2018-11-04T07:09:10.852Z,1.10
2018-11-04T07:11:39.888Z,1.17
2018-11-04T07:14:09.145Z,1.20
2018-11-04T07:16:38.576Z,1.10
2018-11-04T07:19:07.567Z,1.33
2018-11-04T07:21:36.737Z,1.70
2018-11-04T07:24:06.345Z,1.90
2018-11-04T07:26:36.138Z,1.97
2018-11-04T07:29:05.620Z,1.90
2018-11-04T07:31:34.518Z,2.63
2018-11-04T07:34:03.646Z,2.33
2018-11-04T07:36:32.898Z,3.87
2018-11-04T07:39:02.255Z,3.20
2018-11-04T07:41:31.205Z,2.73
2018-11-04T07:44:00.258Z,3.17
2018-11-04T07:46:29.472Z,2.97
2018-11-04T07:48:58.875Z,3.97
2018-11-04T07:51:27.802Z,3.60
2018-11-04T07:53:56.795Z,3.57
2018-11-04T07:56:25.926Z,3.07
2018-11-04T07:58:54.778Z,3.47
2018-11-04T08:01:23.414Z,3.23
2018-11-04T08:03:53.066Z,4.17
2018-11-04T08:06:22.060Z,3.27
2018-11-04T08:08:51.502Z,3.30
2018-11-04T08:11:20.434Z,3.60
2018-11-04T08:13:49.480Z,3.53
2018-11-04T08:16:18.459Z,2.80
2018-11-04T08:18:47.660Z,3.37
2018-11-04T08:21:16.740Z,2.90
2018-11-04T08:23:45.796Z,3.10
2018-11-04T08:26:14.703Z,3.20
2018-11-04T08:28:43.686Z,2.47
2018-11-04T08:31:12.679Z,3.13
2018-11-04T08:33:42.123Z,2.80
2018-11-04T08:36:11.200Z,2.10
2018-11-04T08:38:40.109Z,2.27
2018-11-04T08:41:09.222Z,2.40
2018-11-04T08:43:38.168Z,2.17
2018-11-04T08:46:06.876Z,2.70
2018-11-04T08:48:35.731Z,3.20
2018-11-04T08:51:04.512Z,5.03
2018-11-04T08:53:33.297Z,4.50
2018-11-04T08:56:02.253Z,4.00
2018-11-04T08:58:32.729Z,3.00
2018-11-04T09:01:01.402Z,6.47
2018-11-04T09:03:30.296Z,11.10
2018-11-04T09:05:59.430Z,18.20
2018-11-04T09:08:28.420Z,21.53
2018-11-04T09:10:57.129Z,13.63
2018-11-04T09:13:25.947Z,11.20
2018-11-04T09:15:54.828Z,11.97
2018-11-04T09:18:23.632Z,13.17
2018-11-04T09:20:52.379Z,9.27
2018-11-04T09:23:21.072Z,9.40
2018-11-04T09:25:49.973Z,5.37
2018-11-04T09:28:18.701Z,5.27
2018-11-04T09:30:47.595Z,4.60
2018-11-04T09:33:16.382Z,3.20
2018-11-04T09:35:45.868Z,3.00
2018-11-04T09:38:14.610Z,2.20
2018-11-04T09:40:43.369Z,3.10
2018-11-04T09:43:12.048Z,2.10
2018-11-04T09:45:40.786Z,1.93
2018-11-04T09:48:09.447Z,1.93
2018-11-04T09:50:38.256Z,1.67
2018-11-04T09:53:07.012Z,1.50
2018-11-04T09:55:35.763Z,1.47
2018-11-04T09:58:04.589Z,1.90
2018-11-04T10:00:33.396Z,1.40
2018-11-04T10:03:02.328Z,1.60
2018-11-04T10:05:31.197Z,1.30
2018-11-04T10:07:59.942Z,1.50
2018-11-04T10:10:28.698Z,1.40
2018-11-04T10:12:57.362Z,1.73
2018-11-04T10:15:26.085Z,1.40
2018-11-04T10:17:54.905Z,1.20
2018-11-04T10:20:23.810Z,1.40
2018-11-04T10:22:52.500Z,1.30
2018-11-04T10:25:21.378Z,1.63
2018-11-04T10:27:50.775Z,1.57
2018-11-04T10:30:19.911Z,1.30
2018-11-04T10:32:48.745Z,1.10
2018-11-04T10:35:17.689Z,1.40
2018-11-04T10:37:46.655Z,1.60
2018-11-04T10:40:15.931Z,1.40
2018-11-04T10:42:45.340Z,1.13
2018-11-04T10:45:14.711Z,1.27
2018-11-04T10:47:43.637Z,1.50
2018-11-04T10:50:13.292Z,1.50
2018-11-04T10:52:42.260Z,1.20
2018-11-04T10:55:11.597Z,1.10
2018-11-04T10:57:40.549Z,1.40
2018-11-04T11:00:15.605Z,1.50
2018-11-04T11:02:44.989Z,1.10
2018-11-04T11:05:13.812Z,1.50
2018-11-04T11:07:42.854Z,1.67
2018-11-04T11:10:12.090Z,1.83
2018-11-04T11:12:41.091Z,1.60
2018-11-04T11:15:10.827Z,1.57
2018-11-04T11:17:41.288Z,2.13
2018-11-04T11:20:11.291Z,1.60
2018-11-04T11:22:40.828Z,1.40
2018-11-04T11:25:10.231Z,1.70
2018-11-04T11:27:39.320Z,1.50
2018-11-04T11:30:08.432Z,1.60
2018-11-04T11:32:37.850Z,1.50
2018-11-04T11:35:07.686Z,1.87
2018-11-04T11:37:36.585Z,2.00
2018-11-04T11:40:06.516Z,2.13
2018-11-04T11:42:35.318Z,1.70
2018-11-04T11:45:04.372Z,1.80
2018-11-04T11:47:33.060Z,1.80
2018-11-04T11:50:01.878Z,1.70
2018-11-04T11:52:30.669Z,1.67
2018-11-04T11:54:59.609Z,1.83
2018-11-04T11:57:28.355Z,1.93
2018-11-04T11:59:57.116Z,1.53
2018-11-04T12:02:25.808Z,1.60
2018-11-04T12:04:54.845Z,1.87
2018-11-04T12:07:24.007Z,1.53
2018-11-04T12:09:53.007Z,1.70
2018-11-04T12:12:22.030Z,1.90
2018-11-04T12:14:51.479Z,1.70
2018-11-04T12:17:20.251Z,1.90
2018-11-04T12:19:49.388Z,1.77
2018-11-04T12:22:18.253Z,2.23
2018-11-04T12:24:47.147Z,1.63
2018-11-04T12:27:16.303Z,1.97
2018-11-04T12:29:45.060Z,1.67
2018-11-04T12:32:13.770Z,1.93
2018-11-04T12:34:43.292Z,2.03
2018-11-04T12:37:12.404Z,1.70
2018-11-04T12:39:41.139Z,1.80
2018-11-04T12:42:10.083Z,2.03
2018-11-04T12:44:39.325Z,2.20
2018-11-04T12:47:09.160Z,1.97
2018-11-04T12:49:38.372Z,2.17
2018-11-04T12:52:07.509Z,2.10
2018-11-04T12:54:36.408Z,2.23
2018-11-04T12:57:05.734Z,2.60
2018-11-04T12:59:34.599Z,2.40
2018-11-04T13:02:03.775Z,2.40
2018-11-04T13:04:32.602Z,1.80
2018-11-04T13:07:01.341Z,2.10
2018-11-04T13:09:30.456Z,2.20
2018-11-04T13:11:59.361Z,1.93
2018-11-04T13:14:28.287Z,2.00
2018-11-04T13:16:57.082Z,1.90
2018-11-04T13:19:26.067Z,2.03
2018-11-04T13:21:54.984Z,1.80
2018-11-04T13:24:23.839Z,2.00
2018-11-04T13:26:52.861Z,1.77
2018-11-04T13:29:21.686Z,2.17
2018-11-04T13:31:50.733Z,1.80
2018-11-04T13:34:20.142Z,2.30
2018-11-04T13:36:49.217Z,2.10
2018-11-04T13:39:22.176Z,2.50
2018-11-04T13:41:51.019Z,2.10
2018-11-04T13:44:20.553Z,2.13
2018-11-04T13:46:49.666Z,2.03
2018-11-04T13:49:18.723Z,2.30
2018-11-04T13:51:47.477Z,2.37
2018-11-04T13:54:16.560Z,2.07
2018-11-04T13:56:45.727Z,2.20
2018-11-04T13:59:14.836Z,1.90
2018-11-04T14:01:43.721Z,2.10
2018-11-04T14:04:12.756Z,1.70
2018-11-04T14:06:41.416Z,2.13
2018-11-04T14:09:10.371Z,2.00
2018-11-04T14:11:39.100Z,2.80
2018-11-04T14:14:07.970Z,1.80
2018-11-04T14:16:36.739Z,2.50
2018-11-04T14:19:05.567Z,1.80
2018-11-04T14:21:34.339Z,2.47
2018-11-04T14:24:03.175Z,2.33
2018-11-04T14:26:32.045Z,2.50
2018-11-04T14:29:01.016Z,2.40
2018-11-04T14:31:30.430Z,2.57
2018-11-04T14:33:59.414Z,2.30
2018-11-04T14:36:28.331Z,2.30
2018-11-04T14:38:57.513Z,2.80
2018-11-04T14:41:26.974Z,2.60
2018-11-04T14:43:56.536Z,4.73
2018-11-04T14:46:25.371Z,3.90
2018-11-04T14:48:54.102Z,5.00
2018-11-04T14:51:23.067Z,3.23
2018-11-04T14:53:51.959Z,2.40
2018-11-04T14:56:25.089Z,1.90
2018-11-04T14:58:54.033Z,2.50
2018-11-04T15:01:23.046Z,2.33
2018-11-04T15:03:52.183Z,2.40
2018-11-04T15:06:21.311Z,2.10
2018-11-04T15:08:50.449Z,2.27
2018-11-04T15:11:19.598Z,2.47
2018-11-04T15:13:48.507Z,2.07
2018-11-04T15:16:18.005Z,2.10
2018-11-04T15:18:47.362Z,2.60
2018-11-04T15:21:16.232Z,2.07
2018-11-04T15:23:45.169Z,2.07
2018-11-04T15:26:14.201Z,2.40
2018-11-04T15:28:43.103Z,2.23
2018-11-04T15:31:11.964Z,2.30
2018-11-04T15:33:41.059Z,2.30
2018-11-04T15:36:09.846Z,2.27
2018-11-04T15:38:38.790Z,2.10
2018-11-04T15:41:07.809Z,2.13
2018-11-04T15:44:39.590Z,2.43
2018-11-04T15:47:08.524Z,1.90
2018-11-04T15:49:37.388Z,2.40
2018-11-04T15:52:06.344Z,2.67
2018-11-04T15:54:35.096Z,2.63
2018-11-04T15:57:09.042Z,2.67
2018-11-04T15:59:39.144Z,3.47
2018-11-04T16:02:08.134Z,2.60
2018-11-04T16:04:44.542Z,2.70
2018-11-04T16:07:06.405Z,2.60
2018-11-04T16:09:35.669Z,2.77
2018-11-04T16:12:04.577Z,2.60
2018-11-04T16:14:33.673Z,2.80
2018-11-04T16:17:02.621Z,2.70
2018-11-04T16:19:32.042Z,2.60
2018-11-04T16:22:01.457Z,3.03
2018-11-04T16:24:30.692Z,2.77
2018-11-04T16:27:00.016Z,2.57
2018-11-04T16:29:29.109Z,2.90
2018-11-04T16:31:58.778Z,3.00
2018-11-04T16:34:27.609Z,2.97
2018-11-04T16:36:57.210Z,3.43
2018-11-04T16:39:26.114Z,2.90
2018-11-04T16:41:54.871Z,2.87
2018-11-04T16:44:24.256Z,3.20
2018-11-04T16:46:52.996Z,2.80
2018-11-04T16:49:21.986Z,3.10
2018-11-04T16:51:51.019Z,3.30
2018-11-04T16:54:20.027Z,3.20
2018-11-04T16:56:49.024Z,3.67
2018-11-04T16:59:18.125Z,3.20
2018-11-04T17:01:47.167Z,3.20
2018-11-04T17:04:16.150Z,4.00
2018-11-04T17:06:45.273Z,3.70
2018-11-04T17:09:14.223Z,3.50
2018-11-04T17:11:43.303Z,4.30
2018-11-04T17:14:12.693Z,4.00
2018-11-04T17:16:42.110Z,3.70
2018-11-04T17:19:11.345Z,3.77
2018-11-04T17:21:40.460Z,3.60
2018-11-04T17:24:09.553Z,3.60
2018-11-04T17:26:38.899Z,3.67
2018-11-04T17:29:08.026Z,3.43
2018-11-04T17:31:37.341Z,4.40
2018-11-04T17:34:06.631Z,5.17
2018-11-04T17:36:35.621Z,3.50
2018-11-04T17:39:06.466Z,3.83
2018-11-04T17:41:35.483Z,3.60
2018-11-04T17:44:04.645Z,4.00
2018-11-04T17:46:33.682Z,3.90
2018-11-04T17:49:02.988Z,4.30
2018-11-04T17:51:32.072Z,4.20
2018-11-04T17:54:01.389Z,3.73
2018-11-04T17:56:30.331Z,3.77
2018-11-04T17:58:59.451Z,3.47
2018-11-04T18:01:28.576Z,3.50
2018-11-04T18:03:57.795Z,3.53
2018-11-04T18:06:27.468Z,3.67
2018-11-04T18:08:56.937Z,3.40
2018-11-04T18:11:26.114Z,3.87
2018-11-04T18:13:55.298Z,3.63
2018-11-04T18:16:24.665Z,4.50
2018-11-04T18:18:53.574Z,4.40
2018-11-04T18:21:22.880Z,4.47
2018-11-04T18:23:52.052Z,4.27
2018-11-04T18:26:21.962Z,4.77
2018-11-04T18:28:51.330Z,5.90
2018-11-04T18:31:20.499Z,5.40
2018-11-04T18:33:49.655Z,4.83
2018-11-04T18:36:19.343Z,4.23
2018-11-04T18:38:48.781Z,4.97
2018-11-04T18:41:18.124Z,4.80
2018-11-04T18:43:47.246Z,4.50
2018-11-04T18:46:16.254Z,4.30
2018-11-04T18:48:45.727Z,4.20
2018-11-04T18:51:14.973Z,3.50
2018-11-04T18:53:44.031Z,3.60
2018-11-04T18:56:13.368Z,3.80
2018-11-04T18:58:42.321Z,4.10
2018-11-04T19:01:11.131Z,3.47
2018-11-04T19:03:39.904Z,4.17
2018-11-04T19:06:08.695Z,3.27
2018-11-04T19:08:38.234Z,3.80
2018-11-04T19:11:07.016Z,3.37
2018-11-04T19:13:36.874Z,3.20
2018-11-04T19:16:06.609Z,3.27
2018-11-04T19:18:35.949Z,2.90
2018-11-04T19:21:05.218Z,3.10
2018-11-04T19:23:34.796Z,3.23
2018-11-04T19:26:03.677Z,2.63
2018-11-04T19:28:32.910Z,2.80
2018-11-04T19:31:02.603Z,3.10
2018-11-04T19:33:31.345Z,2.60
2018-11-04T19:36:00.341Z,3.10
2018-11-04T19:38:29.227Z,3.03
2018-11-04T19:40:58.451Z,3.30
2018-11-04T19:43:27.491Z,2.77
2018-11-04T19:45:56.462Z,3.03
2018-11-04T19:48:25.584Z,2.90
2018-11-04T19:50:54.554Z,2.90
2018-11-04T19:53:23.629Z,3.17
2018-11-04T19:55:52.995Z,3.50
2018-11-04T19:58:22.222Z,3.03
2018-11-04T20:00:52.009Z,3.20
2018-11-04T20:03:21.441Z,3.10
2018-11-04T20:05:51.084Z,2.93
2018-11-04T20:08:20.270Z,2.90
2018-11-04T20:10:49.512Z,2.67
2018-11-04T20:13:23.821Z,3.03
2018-11-04T20:15:53.120Z,2.80
2018-11-04T20:18:27.263Z,3.00
2018-11-04T20:20:56.953Z,2.80
2018-11-04T20:23:26.243Z,2.60
2018-11-04T20:26:01.800Z,2.73
2018-11-04T20:28:31.053Z,2.67
2018-11-04T20:31:00.461Z,2.53
2018-11-04T20:33:29.945Z,2.90
2018-11-04T20:35:59.234Z,3.50
2018-11-04T20:38:33.548Z,3.13
2018-11-04T20:41:07.912Z,3.50
2018-11-04T20:43:36.877Z,3.70
2018-11-04T20:46:05.619Z,3.70
2018-11-04T20:48:39.360Z,3.87
2018-11-04T20:51:08.554Z,4.23
2018-11-04T20:53:37.609Z,4.30
2018-11-04T20:56:11.687Z,4.90
2018-11-04T20:58:40.847Z,5.27
2018-11-04T21:01:09.909Z,5.30
2018-11-04T21:03:38.746Z,5.13
2018-11-04T21:06:07.686Z,4.80
2018-11-04T21:08:37.355Z,5.07
2018-11-04T21:11:06.916Z,4.37
2018-11-04T21:13:35.896Z,4.17
2018-11-04T21:16:04.908Z,4.60
2018-11-04T21:18:33.627Z,4.27
2018-11-04T21:21:03.340Z,4.57
2018-11-04T21:23:32.349Z,4.17
2018-11-04T21:26:01.135Z,4.40
2018-11-04T21:28:30.392Z,4.40
2018-11-04T21:30:58.994Z,5.53
2018-11-04T21:33:27.762Z,5.83
2018-11-04T21:35:56.545Z,5.10
2018-11-04T21:38:26.626Z,4.67
2018-11-04T21:40:56.052Z,4.77
2018-11-04T21:43:25.108Z,4.90
2018-11-04T21:45:54.607Z,4.70
2018-11-04T21:48:23.680Z,4.60
2018-11-04T21:50:53.373Z,4.40
2018-11-04T21:53:22.966Z,4.50
2018-11-04T21:55:52.913Z,4.37
2018-11-04T21:58:21.815Z,4.07
2018-11-04T22:00:50.853Z,4.00
2018-11-04T22:03:19.884Z,4.50
2018-11-04T22:05:48.926Z,4.60
2018-11-04T22:08:17.950Z,3.83
2018-11-04T22:10:46.828Z,4.33
2018-11-04T22:13:15.554Z,3.87
2018-11-04T22:15:44.626Z,4.57
2018-11-04T22:18:13.883Z,4.83
2018-11-04T22:20:42.889Z,4.63
2018-11-04T22:23:11.897Z,4.37
2018-11-04T22:26:11.744Z,4.20
2018-11-04T22:28:40.725Z,4.20
2018-11-04T22:31:09.458Z,4.23
2018-11-04T22:33:38.234Z,3.67
2018-11-04T22:36:07.430Z,3.73
2018-11-04T22:38:36.128Z,3.57
2018-11-04T22:41:04.948Z,3.87
2018-11-04T22:43:34.268Z,3.80
2018-11-04T22:46:03.219Z,3.70
2018-11-04T22:48:32.076Z,3.67
2018-11-04T22:51:00.864Z,3.73
2018-11-04T22:53:30.059Z,4.40
2018-11-04T22:55:59.434Z,3.70
2018-11-04T22:58:28.330Z,3.83
2018-11-04T23:01:00.883Z,5.17
2018-11-04T23:03:29.731Z,3.73
2018-11-04T23:06:03.252Z,4.10
2018-11-04T23:08:32.343Z,5.10
2018-11-04T23:11:01.448Z,4.07
2018-11-04T23:13:30.493Z,3.67
2018-11-04T23:15:59.444Z,4.13
2018-11-04T23:18:30.141Z,3.77
2018-11-04T23:20:58.923Z,3.87
2018-11-04T23:23:27.724Z,5.13
2018-11-04T23:25:56.443Z,4.13
2018-11-04T23:28:25.367Z,4.20
2018-11-04T23:30:54.125Z,3.93
2018-11-04T23:33:22.849Z,4.30
2018-11-04T23:35:51.616Z,4.20
2018-11-04T23:38:20.299Z,4.13
2018-11-04T23:40:49.152Z,3.97
2018-11-04T23:43:18.160Z,4.07
2018-11-04T23:45:47.359Z,4.57
2018-11-04T23:48:16.302Z,4.10
2018-11-04T23:50:45.134Z,3.63
2018-11-04T23:53:14.033Z,3.77
2018-11-04T23:55:43.175Z,4.03
2018-11-04T23:58:12.366Z,3.87
